Time;durP1;ratioP1;P1;durP2;ratioP2;P2;SDS_P1;SDS_P2;PMS_P1;PMS_P2;Temp;Humidity;BMP_temperature;BMP_pressure;BME280_temperature;BME280_humidity;BME280_pressure;Samples;Min_cycle;Max_cycle;Signal;HPM_P1;HPM_P2
2021/01/14 00:01:43;;;;;;;33.78;16.97;;;;;;;0.24;68.62;99639.48;1598511;88;21183;-65
2021/01/14 00:04:11;;;;;;;35.75;20.62;;;;;;;0.26;68.79;99650.73;1634832;86;21194;-65
2021/01/14 00:06:38;;;;;;;36.55;19.87;;;;;;;0.29;68.84;99649.05;1629957;85;21571;-56
2021/01/14 00:09:06;;;;;;;31.73;18.82;;;;;;;0.35;68.81;99654.78;1621149;88;21559;-57
2021/01/14 00:11:34;;;;;;;45.48;22.95;;;;;;;0.41;68.83;99651.42;1621294;87;21249;-65
2021/01/14 00:14:02;;;;;;;36.88;20.10;;;;;;;0.44;68.80;99648.88;1642889;87;21139;-66
2021/01/14 00:16:32;;;;;;;35.75;19.50;;;;;;;0.50;68.83;99654.17;1665441;84;21581;-66
2021/01/14 00:18:59;;;;;;;36.30;18.40;;;;;;;0.58;68.71;99665.53;1621471;88;21179;-56
2021/01/14 00:24:25;;;;;;;40.88;20.65;;;;;;;0.69;68.54;99658.34;1827802;77;22139;-55
2021/01/14 00:26:53;;;;;;;32.85;18.27;;;;;;;0.67;68.44;99661.33;1763597;80;21570;-56
2021/01/14 00:29:20;;;;;;;32.00;17.98;;;;;;;0.68;68.28;99665.25;1761959;81;21609;-56
2021/01/14 00:31:48;;;;;;;32.23;18.77;;;;;;;0.69;68.17;99668.30;1757356;80;21123;-64
2021/01/14 00:34:16;;;;;;;33.67;19.70;;;;;;;0.70;68.07;99671.34;1761173;80;21265;-56
2021/01/14 00:39:30;;;;;;;34.38;19.15;;;;;;;0.75;67.56;99675.28;1759869;81;21131;-66
2021/01/14 00:41:58;;;;;;;36.08;20.60;;;;;;;0.70;67.42;99676.52;1756110;81;21572;-58
2021/01/14 00:44:25;;;;;;;38.65;20.52;;;;;;;0.68;67.44;99671.73;1752262;81;21629;-57
2021/01/14 00:46:57;;;;;;;42.55;21.25;;;;;;;0.63;67.47;99668.63;1723817;83;21617;-58
2021/01/14 00:49:25;;;;;;;39.27;20.72;;;;;;;0.57;67.48;99667.67;1740195;80;21549;-58
2021/01/14 00:51:52;;;;;;;36.20;19.10;;;;;;;0.65;67.11;99666.94;1732066;81;21537;-58
2021/01/14 00:54:20;;;;;;;38.83;21.57;;;;;;;0.61;67.04;99662.11;1742416;81;21182;-66
2021/01/14 00:56:47;;;;;;;35.90;20.05;;;;;;;0.58;67.06;99664.65;1755283;81;21571;-57
2021/01/14 00:59:14;;;;;;;33.28;19.12;;;;;;;0.59;66.90;99668.58;1750140;81;21606;-58
2021/01/14 01:01:42;;;;;;;35.80;18.73;;;;;;;0.60;66.83;99666.84;1744397;81;21147;-58
2021/01/14 01:04:10;;;;;;;38.00;20.52;;;;;;;0.57;66.74;99667.67;1737257;81;21665;-66
2021/01/14 01:06:40;;;;;;;36.53;19.75;;;;;;;0.54;66.75;99668.03;1718187;81;21705;-58
2021/01/14 01:09:09;;;;;;;34.78;18.48;;;;;;;0.59;66.55;99670.28;1753899;81;21135;-59
2021/01/14 01:11:38;;;;;;;36.38;20.50;;;;;;;0.58;66.48;99667.23;1761428;80;22172;-58
2021/01/14 01:14:05;;;;;;;33.75;17.87;;;;;;;0.57;66.46;99662.50;1723605;82;21591;-64
2021/01/14 01:16:33;;;;;;;34.20;17.90;;;;;;;0.55;66.30;99668.08;1743987;81;21581;-58
2021/01/14 01:19:01;;;;;;;30.72;17.35;;;;;;;0.51;66.28;99667.57;1719062;82;21581;-66
2021/01/14 01:21:28;;;;;;;36.80;19.85;;;;;;;0.50;66.21;99669.70;1737426;81;21523;-57
2021/01/14 01:23:56;;;;;;;38.33;20.55;;;;;;;0.49;66.37;99670.96;1761890;81;21630;-66
2021/01/14 01:26:24;;;;;;;40.90;21.48;;;;;;;0.52;66.37;99673.20;1761431;80;21619;-66
2021/01/14 01:28:51;;;;;;;38.53;21.30;;;;;;;0.49;66.50;99673.55;1746667;81;21103;-66
2021/01/14 01:31:19;;;;;;;31.75;18.35;;;;;;;0.50;66.46;99673.59;1734024;81;21801;-66
2021/01/14 01:33:47;;;;;;;36.53;19.85;;;;;;;0.52;66.49;99674.49;1732141;83;21699;-66
2021/01/14 01:36:15;;;;;;;39.15;22.30;;;;;;;0.61;66.31;99664.70;1737644;81;21150;-66
2021/01/14 01:38:42;;;;;;;38.48;21.42;;;;;;;0.67;66.10;99666.10;1758797;81;21613;-57
2021/01/14 01:41:10;;;;;;;38.63;20.48;;;;;;;0.65;66.03;99664.34;1761596;80;21597;-67
2021/01/14 01:43:37;;;;;;;32.95;18.98;;;;;;;0.66;66.05;99667.39;1758398;81;21550;-57
2021/01/14 01:46:05;;;;;;;32.33;18.20;;;;;;;0.71;66.01;99665.72;1737356;81;21153;-65
2021/01/14 01:48:33;;;;;;;34.90;19.20;;;;;;;0.71;66.08;99664.42;1735164;81;21620;-65
2021/01/14 01:51:01;;;;;;;36.30;19.60;;;;;;;0.72;66.06;99657.09;1761983;80;21178;-58
2021/01/14 01:53:30;;;;;;;31.85;18.62;;;;;;;0.75;66.05;99661.03;1756374;81;21620;-66
2021/01/14 01:55:57;;;;;;;32.05;18.05;;;;;;;0.72;66.12;99660.98;1731560;82;21597;-67
2021/01/14 01:58:25;;;;;;;31.85;18.17;;;;;;;0.68;66.26;99665.25;1736808;81;21566;-66
2021/01/14 02:00:52;;;;;;;30.60;18.67;;;;;;;0.78;66.05;99664.97;1759013;80;21554;-58
2021/01/14 02:03:20;;;;;;;34.90;19.48;;;;;;;0.76;65.93;99669.25;1716880;82;21573;-66
2021/01/14 02:05:47;;;;;;;33.40;18.42;;;;;;;0.80;65.78;99670.20;1706633;84;21490;-63
2021/01/14 02:08:38;;;;;;;38.83;21.27;;;;;;;0.79;65.62;99668.45;1683486;84;21189;-58
2021/01/14 02:11:13;;;;;;;36.50;20.35;;;;;;;0.77;65.63;99667.55;1703678;83;21587;-57
2021/01/14 02:14:04;;;;;;;33.85;17.50;;;;;;;0.73;65.61;99662.32;1681591;84;21650;-66
2021/01/14 02:16:32;;;;;;;31.75;17.23;;;;;;;0.72;65.58;99668.34;1708168;84;21562;-57
2021/01/14 02:19:00;;;;;;;31.93;18.70;;;;;;;0.76;65.46;99665.81;1723538;83;21649;-58
2021/01/14 02:21:27;;;;;;;30.35;17.92;;;;;;;0.76;65.48;99661.92;1691858;83;21617;-66
2021/01/14 02:24:20;;;;;;;29.90;15.68;;;;;;;0.79;65.51;99664.56;1713400;83;21270;-66
2021/01/14 02:26:48;;;;;;;28.80;16.05;;;;;;;0.79;65.46;99663.27;1748467;81;21618;-57
2021/01/14 02:29:15;;;;;;;34.85;18.35;;;;;;;0.79;65.40;99667.16;1747091;82;21597;-66
2021/01/14 02:31:43;;;;;;;28.70;17.17;;;;;;;0.76;65.45;99666.66;1717100;82;21134;-58
2021/01/14 02:48:04;;;;;;;34.85;19.15;;;;;;;0.59;66.09;99667.69;1831867;77;22583;-64
2021/01/14 02:50:35;;;;;;;28.67;16.60;;;;;;;0.54;66.06;99663.73;1762503;80;21156;-62
2021/01/14 02:53:02;;;;;;;34.43;18.67;;;;;;;0.57;65.92;99660.31;1753378;81;21130;-57
2021/01/14 02:55:30;;;;;;;33.90;18.25;;;;;;;0.57;65.81;99661.20;1732925;82;21749;-63
2021/01/14 02:57:57;;;;;;;30.12;16.75;;;;;;;0.56;65.81;99660.75;1735542;81;21737;-64
2021/01/14 03:00:25;;;;;;;28.90;16.42;;;;;;;0.53;65.86;99658.52;1732474;83;21642;-56
2021/01/14 03:02:53;;;;;;;29.10;16.67;;;;;;;0.57;65.74;99656.02;1758377;81;21585;-62
2021/01/14 03:05:20;;;;;;;30.23;16.93;;;;;;;0.60;65.53;99655.19;1751011;81;21131;-55
2021/01/14 03:07:47;;;;;;;33.13;18.17;;;;;;;0.57;65.32;99651.25;1754382;81;21142;-56
2021/01/14 03:10:15;;;;;;;29.87;16.23;;;;;;;0.51;65.43;99657.21;1731506;81;21668;-64
2021/01/14 03:12:43;;;;;;;27.27;15.95;;;;;;;0.49;65.40;99661.89;1728430;83;21644;-63
2021/01/14 03:15:12;;;;;;;34.20;18.82;;;;;;;0.45;65.29;99658.39;1750286;81;21114;-63
2021/01/14 03:17:40;;;;;;;28.95;16.48;;;;;;;0.42;65.29;99654.05;1733215;81;21250;-63
2021/01/14 03:20:08;;;;;;;30.82;17.95;;;;;;;0.35;65.23;99662.55;1729211;81;21611;-63
2021/01/14 03:22:40;;;;;;;31.05;17.52;;;;;;;0.30;65.29;99664.19;1758298;81;21159;-63
2021/01/14 03:25:10;;;;;;;27.22;15.58;;;;;;;0.26;65.24;99660.65;1756380;81;21130;-56
2021/01/14 03:27:42;;;;;;;31.07;16.25;;;;;;;0.18;65.33;99657.08;1728974;81;21581;-56
2021/01/14 03:30:12;;;;;;;23.87;14.28;;;;;;;0.13;65.28;99653.53;1747533;81;21606;-55
2021/01/14 03:32:40;;;;;;;29.05;16.82;;;;;;;0.08;65.32;99657.30;1733737;82;21304;-63
2021/01/14 03:35:09;;;;;;;28.80;15.63;;;;;;;0.01;65.33;99660.61;1737787;81;21327;-63
2021/01/14 03:37:40;;;;;;;36.68;19.42;;;;;;;-0.03;65.24;99660.98;1756808;81;21174;-63
2021/01/14 03:40:09;;;;;;;33.53;17.73;;;;;;;-0.07;65.23;99660.48;1761714;81;21200;-65
2021/01/14 03:42:37;;;;;;;26.97;15.93;;;;;;;-0.12;65.24;99670.30;1768196;80;21640;-65
2021/01/14 03:45:07;;;;;;;31.87;16.57;;;;;;;-0.19;65.22;99670.17;1766320;81;21326;-64
2021/01/14 03:47:35;;;;;;;26.17;13.62;;;;;;;-0.24;65.26;99664.47;1752840;81;21551;-61
2021/01/14 03:50:06;;;;;;;24.98;14.78;;;;;;;-0.28;65.27;99658.78;1746266;82;21305;-58
2021/01/14 03:52:36;;;;;;;22.98;13.85;;;;;;;-0.31;65.25;99659.57;1734176;82;21159;-65
2021/01/14 03:55:05;;;;;;;28.47;14.80;;;;;;;-0.35;65.12;99665.52;1729997;82;21571;-65
2021/01/14 03:57:36;;;;;;;31.23;15.53;;;;;;;-0.42;65.14;99668.81;1728520;82;21178;-58
2021/01/14 04:00:07;;;;;;;27.37;15.58;;;;;;;-0.46;65.09;99669.18;1784768;79;21221;-59
2021/01/14 04:02:40;;;;;;;26.68;14.93;;;;;;;-0.48;65.02;99665.69;1786209;79;21267;-65
2021/01/14 04:05:11;;;;;;;28.07;15.23;;;;;;;-0.63;65.19;99672.70;1761404;79;21568;-57
2021/01/14 04:07:39;;;;;;;26.62;14.30;;;;;;;-0.70;65.24;99669.53;1744476;82;21333;-59
2021/01/14 04:10:07;;;;;;;29.67;15.48;;;;;;;-0.73;65.25;99679.80;1805768;79;21673;-65
2021/01/14 04:12:35;;;;;;;26.77;14.87;;;;;;;-0.76;65.20;99680.18;1774153;79;21147;-65
2021/01/14 04:15:04;;;;;;;29.95;16.73;;;;;;;-0.75;65.10;99672.02;1784681;80;21598;-62
2021/01/14 04:17:31;;;;;;;30.68;17.37;;;;;;;-0.75;65.08;99667.71;1785017;80;21597;-64
2021/01/14 04:19:59;;;;;;;28.52;15.28;;;;;;;-0.80;64.97;99668.02;1793390;79;21594;-58
2021/01/14 04:22:27;;;;;;;28.92;16.52;;;;;;;-0.93;65.30;99673.34;1784791;80;21614;-65
2021/01/14 04:25:02;;;;;;;26.93;14.95;;;;;;;-0.99;65.42;99672.34;1782260;79;21730;-58
2021/01/14 04:27:24;;;;;;;27.62;15.28;;;;;;;-0.98;65.42;99681.41;1784636;79;21567;-57
2021/01/14 04:29:51;;;;;;;24.15;13.48;;;;;;;-0.98;65.42;99681.41;1805547;79;21569;-57
2021/01/14 04:32:22;;;;;;;27.22;15.53;;;;;;;-1.01;65.80;99682.62;1803494;79;21166;-59
2021/01/14 04:34:49;;;;;;;;;;;;;;;-1.03;66.23;99684.72;1787706;80;21495;-57
2021/01/14 04:37:16;;;;;;;32.38;17.48;;;;;;;-0.91;66.24;99678.12;1785669;79;20547;-64
2021/01/14 04:39:44;;;;;;;26.85;14.38;;;;;;;-0.81;66.00;99675.76;1785321;79;21566;-58
2021/01/14 04:42:12;;;;;;;27.77;14.80;;;;;;;-0.76;65.88;99675.02;1784663;80;21542;-57
2021/01/14 04:44:40;;;;;;;30.95;17.05;;;;;;;-0.87;66.22;99678.20;1784961;80;21147;-57
2021/01/14 04:47:11;;;;;;;28.00;15.30;;;;;;;-0.86;66.15;99678.22;1768030;80;21617;-64
2021/01/14 04:49:40;;;;;;;33.23;16.90;;;;;;;-0.86;66.09;99674.34;1755219;80;21586;-65
2021/01/14 05:49:26;;;;;;;23.45;13.32;;;;;;;-1.09;65.44;99684.14;1822785;77;22158;-55
2021/01/14 05:51:53;;;;;;;21.02;11.43;;;;;;;-1.08;65.50;99685.48;1791113;78;21610;-55
2021/01/14 05:54:27;;;;;;;20.37;12.30;;;;;;;-1.00;65.46;99688.67;1768071;80;21640;-62
2021/01/14 05:56:54;;;;;;;24.43;13.40;;;;;;;-0.95;65.58;99688.37;1796000;80;21565;-55
2021/01/14 05:59:33;;;;;;;21.80;11.73;;;;;;;-0.92;65.42;99684.12;1764097;80;21145;-62
2021/01/14 06:02:01;;;;;;;38.98;16.15;;;;;;;-0.89;65.41;99684.64;1752351;81;21584;-63
2021/01/14 06:04:31;;;;;;;25.77;12.70;;;;;;;-0.84;65.39;99685.59;1729359;83;21128;-63
2021/01/14 06:07:02;;;;;;;22.17;10.93;;;;;;;-0.80;65.11;99696.45;1729300;82;21317;-57
2021/01/14 06:09:42;;;;;;;22.80;12.50;;;;;;;-0.81;64.84;99689.97;1735103;82;21145;-63
2021/01/14 06:12:12;;;;;;;22.02;12.30;;;;;;;-0.83;64.86;99691.21;1737847;82;21150;-62
2021/01/14 06:14:41;;;;;;;25.45;13.98;;;;;;;-0.78;65.09;99693.48;1737438;82;21597;-63
2021/01/14 06:17:11;;;;;;;24.50;13.13;;;;;;;-0.70;65.27;99691.09;1735463;82;21635;-57
2021/01/14 06:19:42;;;;;;;20.85;11.25;;;;;;;-0.63;65.16;99689.07;1727360;82;21626;-63
2021/01/14 06:22:17;;;;;;;20.32;11.68;;;;;;;-0.64;64.93;99692.49;1713992;82;21590;-63
2021/01/14 06:24:48;;;;;;;24.05;13.55;;;;;;;-0.74;64.75;99697.03;1736816;82;21167;-56
2021/01/14 06:27:22;;;;;;;23.85;13.35;;;;;;;-0.76;64.91;99696.13;1706148;82;21130;-63
2021/01/14 06:30:03;;;;;;;23.80;13.28;;;;;;;-0.68;64.87;99698.87;1737071;82;21577;-63
2021/01/14 06:32:38;;;;;;;32.78;16.65;;;;;;;-0.63;64.33;99699.41;1707875;82;21186;-63
2021/01/14 06:35:12;;;;;;;25.25;13.55;;;;;;;-0.58;64.75;99693.47;1736663;82;21295;-62
2021/01/14 06:37:43;;;;;;;23.75;13.58;;;;;;;-0.51;64.92;99699.23;1706976;83;21189;-56
2021/01/14 06:40:16;;;;;;;22.87;13.50;;;;;;;-0.43;64.82;99694.22;1679490;84;21142;-56
2021/01/14 06:42:43;;;;;;;24.75;14.63;;;;;;;-0.38;64.79;99701.25;1659565;82;21194;-56
2021/01/14 06:45:12;;;;;;;23.62;14.45;;;;;;;-0.35;64.89;99700.03;1692315;82;21172;-57
2021/01/14 06:47:47;;;;;;;29.65;16.05;;;;;;;-0.28;65.02;99701.02;1705351;84;21593;-63
2021/01/14 06:50:26;;;;;;;25.05;14.83;;;;;;;-0.20;64.97;99698.17;1748758;82;21614;-63
2021/01/14 06:53:02;;;;;;;27.85;15.03;;;;;;;-0.16;64.82;99709.04;1748989;82;21610;-64
2021/01/14 06:55:36;;;;;;;79.90;29.40;;;;;;;-0.11;64.76;99702.66;1745334;81;21616;-57
2021/01/14 06:58:10;;;;;;;185.45;52.98;;;;;;;-0.06;64.90;99697.15;1779158;81;21167;-57
2021/01/14 07:00:43;;;;;;;185.70;50.67;;;;;;;-0.04;64.57;99700.64;1768620;81;21141;-56
2021/01/14 07:03:22;;;;;;;212.78;52.73;;;;;;;-0.18;64.03;99700.38;1758847;80;21134;-56
2021/01/14 07:05:58;;;;;;;287.72;63.68;;;;;;;-0.38;64.03;99697.38;1767743;79;21611;-56
2021/01/14 07:08:41;;;;;;;298.02;64.90;;;;;;;-0.60;64.23;99699.91;1779046;81;21143;-56
2021/01/14 07:11:15;;;;;;;324.23;68.05;;;;;;;-0.70;64.68;99707.00;1741759;82;21582;-56
2021/01/14 07:13:47;;;;;;;313.25;65.72;;;;;;;-0.72;65.04;99707.38;1777604;80;21131;-56
2021/01/14 07:16:23;;;;;;;307.73;62.83;;;;;;;-0.71;65.11;99710.02;1732485;82;21170;-56
2021/01/14 07:18:56;;;;;;;344.87;73.25;;;;;;;-0.65;65.17;99711.86;1757558;80;21123;-56
2021/01/14 07:21:41;;;;;;;354.98;72.40;;;;;;;-0.63;65.11;99715.36;1778854;80;21603;-56
2021/01/14 07:24:20;;;;;;;252.07;54.65;;;;;;;-0.60;65.04;99719.30;1755516;80;21127;-56
2021/01/14 07:26:59;;;;;;;186.07;44.42;;;;;;;-0.53;65.18;99725.06;1786800;80;21566;-56
2021/01/14 07:29:30;;;;;;;200.90;46.30;;;;;;;-0.44;65.24;99723.09;1785979;80;21127;-56
2021/01/14 07:32:00;;;;;;;129.38;33.30;;;;;;;-0.35;65.29;99731.46;1782834;79;21099;-56
2021/01/14 07:34:43;;;;;;;188.50;48.23;;;;;;;-0.25;65.25;99729.53;1778653;80;21146;-57
2021/01/14 07:37:20;;;;;;;201.90;48.23;;;;;;;-0.14;65.21;99725.02;1740959;82;21716;-67
2021/01/14 07:39:56;;;;;;;326.62;65.72;;;;;;;-0.09;65.05;99718.22;1779010;79;21174;-68
2021/01/14 07:42:32;;;;;;;358.45;74.50;;;;;;;-0.04;64.98;99721.34;1784642;80;21114;-68
2021/01/14 07:45:05;;;;;;;254.03;54.53;;;;;;;0.01;64.91;99714.09;1784231;80;21314;-68
2021/01/14 07:47:36;;;;;;;320.48;72.92;;;;;;;0.12;65.67;99721.66;1755602;80;21170;-67
2021/01/14 07:50:28;;;;;;;355.50;75.70;;;;;;;0.26;65.30;99718.03;1784385;80;21102;-67
2021/01/14 07:53:02;;;;;;;333.13;69.40;;;;;;;0.35;65.04;99722.50;1762580;80;21154;-57
2021/01/14 07:55:35;;;;;;;249.70;57.25;;;;;;;0.40;64.97;99725.65;1754773;80;21281;-68
2021/01/14 07:58:21;;;;;;;294.40;58.98;;;;;;;0.46;64.88;99734.34;1733969;82;21149;-68
2021/01/14 08:03:16;;;;;;;214.80;52.90;;;;;;;0.60;64.61;99726.41;1834812;77;24870;-55
2021/01/14 08:05:58;;;;;;;215.37;52.48;;;;;;;0.57;64.53;99727.65;1728433;83;21179;-55
2021/01/14 08:08:35;;;;;;;76.62;26.12;;;;;;;0.62;64.50;99727.75;1712472;83;21103;-66
2021/01/14 08:11:19;;;;;;;43.83;20.15;;;;;;;0.67;64.54;99736.45;1727545;83;21159;-57
2021/01/14 08:14:11;;;;;;;32.48;18.67;;;;;;;0.72;64.45;99738.70;1710597;83;21134;-57
2021/01/14 08:16:50;;;;;;;52.30;27.10;;;;;;;0.74;64.27;99741.78;1712563;83;21635;-57
2021/01/14 08:19:32;;;;;;;39.73;22.20;;;;;;;0.77;64.17;99734.47;1714684;83;21154;-58
2021/01/14 08:22:08;;;;;;;43.50;22.10;;;;;;;0.83;64.16;99732.43;1694524;84;21562;-58
2021/01/14 08:24:44;;;;;;;30.65;18.12;;;;;;;0.91;64.19;99733.84;1678310;84;21186;-69
2021/01/14 08:27:30;;;;;;;30.92;17.80;;;;;;;0.95;64.01;99732.61;1692583;84;21333;-68
2021/01/14 08:30:02;;;;;;;25.25;14.53;;;;;;;0.99;64.09;99737.44;1716385;83;21651;-70
2021/01/14 08:33:04;;;;;;;33.63;18.77;;;;;;;1.04;64.01;99737.95;1713302;84;21641;-70
2021/01/14 08:35:35;;;;;;;32.73;19.85;;;;;;;1.10;63.95;99745.38;1713306;83;21131;-70
2021/01/14 08:38:11;;;;;;;;;;;;;;;1.19;63.98;99742.94;1711464;83;21144;-71
2021/01/14 08:40:41;;;;;;;26.90;14.90;;;;;;;1.25;63.77;99736.97;1680110;84;20168;-71
2021/01/14 08:43:15;;;;;;;24.15;13.18;;;;;;;1.37;63.92;99735.86;1705993;84;21629;-71
2021/01/14 08:45:56;;;;;;;22.82;14.13;;;;;;;1.48;63.70;99736.01;1701194;83;21605;-70
2021/01/14 08:48:31;;;;;;;28.12;14.68;;;;;;;1.55;63.30;99735.66;1700506;83;21150;-70
2021/01/14 08:51:01;;;;;;;25.30;14.63;;;;;;;1.60;63.09;99734.00;1683662;83;21178;-68
2021/01/14 08:53:32;;;;;;;;;;;;;;;1.62;62.97;99743.57;1716778;83;21585;-68
2021/01/14 08:56:17;;;;;;;29.35;16.17;;;;;;;1.65;62.83;99733.64;1714874;83;20175;-68
2021/01/14 08:58:48;;;;;;;29.15;16.37;;;;;;;1.66;62.82;99725.02;1623188;83;21618;-70
2021/01/14 09:01:21;;;;;;;27.22;16.27;;;;;;;1.74;62.82;99723.84;1716225;82;21637;-69
2021/01/14 09:03:53;;;;;;;26.70;15.25;;;;;;;1.81;62.50;99724.78;1697375;84;21558;-69
2021/01/14 09:06:33;;;;;;;21.50;13.08;;;;;;;1.84;62.35;99722.23;1683421;84;21151;-68
2021/01/14 09:09:02;;;;;;;24.07;14.68;;;;;;;1.83;61.90;99711.40;1716838;82;21123;-68
2021/01/14 09:11:30;;;;;;;28.98;15.43;;;;;;;1.87;61.99;99713.19;1738824;82;21155;-67
2021/01/14 09:14:12;;;;;;;22.95;12.85;;;;;;;1.89;62.07;99709.73;1738822;82;21120;-67
2021/01/14 09:16:43;;;;;;;22.37;13.08;;;;;;;1.93;61.87;99710.23;1733562;82;21131;-67
2021/01/14 09:19:19;;;;;;;20.92;12.90;;;;;;;2.01;61.95;99709.01;1746760;82;21127;-66
2021/01/14 09:21:48;;;;;;;26.35;16.27;;;;;;;2.06;61.76;99697.40;1736059;82;21150;-66
2021/01/14 09:24:18;;;;;;;28.55;16.82;;;;;;;2.13;61.87;99700.52;1718611;83;21496;-65
2021/01/14 09:26:52;;;;;;;39.03;19.75;;;;;;;2.19;61.87;99697.10;1736392;82;21575;-65
2021/01/14 09:29:30;;;;;;;67.78;25.97;;;;;;;2.25;61.97;99692.39;1748316;82;21550;-64
2021/01/14 09:31:59;;;;;;;80.20;33.18;;;;;;;2.33;61.94;99692.94;1735988;81;21787;-63
2021/01/14 09:34:28;;;;;;;95.32;36.28;;;;;;;2.38;61.56;99692.55;1712873;82;21135;-63
2021/01/14 09:36:57;;;;;;;66.82;27.20;;;;;;;2.42;61.55;99692.14;1748277;80;21561;-62
2021/01/14 09:39:25;;;;;;;77.25;31.15;;;;;;;2.50;61.68;99691.80;1748253;82;21543;-62
2021/01/14 09:44:37;;;;;;;118.15;34.60;;;;;;;2.63;61.16;99682.83;1830356;77;22140;-58
2021/01/14 09:47:05;;;;;;;140.37;41.25;;;;;;;2.58;60.94;99684.51;1737296;81;21107;-58
2021/01/14 09:49:33;;;;;;;162.45;48.15;;;;;;;2.58;60.83;99681.91;1761640;81;21178;-58
2021/01/14 09:52:00;;;;;;;115.70;35.35;;;;;;;2.57;60.94;99680.17;1761176;81;21154;-57
2021/01/14 09:54:28;;;;;;;116.82;36.55;;;;;;;2.59;60.83;99672.81;1761801;81;21745;-59
2021/01/14 09:56:58;;;;;;;113.40;38.35;;;;;;;2.63;60.67;99671.14;1762147;80;21123;-58
2021/01/14 09:59:40;;;;;;;143.82;41.33;;;;;;;2.64;60.67;99666.37;1751079;81;21130;-59
2021/01/14 10:02:31;;;;;;;142.28;44.73;;;;;;;2.66;60.66;99666.83;1746251;81;21139;-60
2021/01/14 10:05:12;;;;;;;128.68;41.75;;;;;;;2.70;60.67;99658.61;1742926;81;21169;-60
2021/01/14 10:07:45;;;;;;;141.45;42.70;;;;;;;2.77;60.55;99656.51;1739391;81;21603;-60
2021/01/14 10:10:14;;;;;;;103.50;37.38;;;;;;;2.81;60.40;99650.92;1751765;81;21610;-60
2021/01/14 10:12:41;;;;;;;107.43;37.03;;;;;;;2.85;60.45;99642.29;1752740;81;21158;-60
2021/01/14 10:15:16;;;;;;;;;;;;;;;2.96;60.33;99643.22;1747671;81;21178;-60
2021/01/14 10:17:45;;;;;;;41.13;19.05;;;;;;;3.04;60.48;99638.50;1714445;83;20212;-60
2021/01/14 10:20:16;;;;;;;99.42;34.90;;;;;;;3.16;60.37;99631.20;1678475;84;21178;-60
2021/01/14 10:22:52;;;;;;;65.80;26.55;;;;;;;3.25;60.17;99641.25;1702388;84;21783;-62
2021/01/14 10:25:22;;;;;;;50.83;21.42;;;;;;;3.33;60.16;99636.48;1700285;84;21184;-62
2021/01/14 10:28:03;;;;;;;31.48;15.88;;;;;;;3.44;59.99;99632.67;1698858;84;21173;-60
2021/01/14 10:30:36;;;;;;;26.12;15.35;;;;;;;3.51;59.55;99630.53;1710440;82;21141;-60
2021/01/14 10:33:07;;;;;;;123.35;36.63;;;;;;;3.53;59.42;99624.46;1677686;83;21598;-64
2021/01/14 10:35:37;;;;;;;148.10;42.98;;;;;;;3.58;59.34;99620.56;1702233;82;21168;-67
2021/01/14 10:38:19;;;;;;;106.05;33.63;;;;;;;3.62;59.25;99621.02;1709174;83;21344;-69
2021/01/14 10:40:54;;;;;;;68.80;24.60;;;;;;;3.65;59.28;99613.67;1709025;83;21151;-60
2021/01/14 10:43:33;;;;;;;50.75;22.45;;;;;;;3.75;59.30;99618.47;1703831;83;21319;-66
2021/01/14 10:46:05;;;;;;;155.55;42.20;;;;;;;3.81;59.11;99611.53;1743291;80;21663;-64
2021/01/14 10:48:40;;;;;;;151.42;42.85;;;;;;;3.85;58.86;99610.69;1749170;81;21558;-65
2021/01/14 10:51:10;;;;;;;147.13;41.05;;;;;;;3.92;58.70;99612.01;1739596;82;21142;-65
2021/01/14 10:53:43;;;;;;;108.97;32.98;;;;;;;4.01;58.54;99608.12;1740705;82;21171;-64
2021/01/14 10:56:20;;;;;;;140.25;43.15;;;;;;;3.96;58.60;99600.32;1726681;82;21123;-65
2021/01/14 10:58:59;;;;;;;104.12;33.92;;;;;;;3.97;58.41;99603.36;1754308;82;21110;-67
2021/01/14 11:01:30;;;;;;;91.70;33.10;;;;;;;3.94;58.21;99598.14;1747101;82;21172;-64
2021/01/14 11:04:09;;;;;;;58.02;24.87;;;;;;;3.95;58.34;99593.38;1750437;82;21253;-64
2021/01/14 11:06:41;;;;;;;57.43;24.32;;;;;;;4.05;58.37;99582.53;1749869;81;21153;-62
2021/01/14 11:09:13;;;;;;;92.97;33.55;;;;;;;4.08;58.05;99584.26;1728444;82;21190;-68
2021/01/14 11:11:44;;;;;;;113.95;37.38;;;;;;;4.16;58.38;99594.26;1726492;82;21127;-67
2021/01/14 11:14:20;;;;;;;108.42;36.83;;;;;;;4.18;58.14;99588.62;1739083;82;21526;-68
2021/01/14 11:16:50;;;;;;;114.72;38.53;;;;;;;4.23;57.93;99595.13;1740297;82;21151;-67
2021/01/14 11:19:18;;;;;;;145.65;54.00;;;;;;;4.26;57.75;99596.43;1737238;82;21195;-67
2021/01/14 11:21:48;;;;;;;137.55;46.60;;;;;;;4.27;57.76;99589.94;1743304;82;21107;-67
2021/01/14 11:24:17;;;;;;;120.87;41.60;;;;;;;4.27;57.97;99593.84;1747281;81;21173;-66
2021/01/14 11:26:49;;;;;;;108.12;38.78;;;;;;;4.31;57.73;99593.39;1736495;82;21158;-66
2021/01/14 11:29:18;;;;;;;104.65;35.52;;;;;;;4.33;57.86;99592.11;1708300;83;21158;-66
2021/01/14 11:31:48;;;;;;;135.25;41.08;;;;;;;4.42;57.66;99585.58;1730314;82;21284;-66
2021/01/14 11:34:18;;;;;;;141.45;43.42;;;;;;;4.48;57.34;99589.48;1755418;81;21467;-65
2021/01/14 11:36:48;;;;;;;56.33;22.37;;;;;;;4.46;57.23;99584.30;1729438;82;21172;-62
2021/01/14 11:39:19;;;;;;;96.17;32.85;;;;;;;4.52;57.49;99582.11;1739272;82;21131;-63
2021/01/14 11:41:52;;;;;;;57.38;23.52;;;;;;;4.61;57.24;99583.41;1741107;82;21136;-63
2021/01/14 11:44:22;;;;;;;47.27;20.37;;;;;;;4.68;57.31;99579.05;1729157;82;21297;-63
2021/01/14 11:46:53;;;;;;;24.45;14.50;;;;;;;4.78;57.12;99585.14;1747933;80;21163;-63
2021/01/14 11:49:22;;;;;;;69.00;26.65;;;;;;;4.88;56.88;99582.93;1721678;82;21727;-63
2021/01/14 11:51:54;;;;;;;75.70;26.05;;;;;;;4.99;56.56;99588.56;1743935;82;21181;-64
2021/01/14 11:54:25;;;;;;;45.43;18.30;;;;;;;5.01;56.19;99581.61;1725023;82;21142;-64
2021/01/14 11:56:58;;;;;;;36.45;17.17;;;;;;;4.90;56.16;99579.03;1733260;83;21208;-64
2021/01/14 11:59:27;;;;;;;31.00;15.50;;;;;;;4.92;56.26;99578.59;1737356;82;21183;-63
2021/01/14 12:01:57;;;;;;;34.18;16.65;;;;;;;4.93;56.45;99576.42;1744454;81;21159;-64
2021/01/14 12:04:27;;;;;;;22.13;13.50;;;;;;;4.99;55.66;99584.66;1721532;82;21594;-63
2021/01/14 12:06:55;;;;;;;39.50;22.27;;;;;;;4.95;55.82;99577.29;1737160;82;21171;-63
2021/01/14 12:09:26;;;;;;;23.18;14.53;;;;;;;4.96;55.84;99577.72;1741540;81;21131;-63
2021/01/14 12:11:57;;;;;;;17.10;11.95;;;;;;;5.00;55.87;99574.23;1747609;82;21159;-63
2021/01/14 12:14:27;;;;;;;18.80;11.40;;;;;;;5.06;55.66;99574.23;1718766;82;21610;-63
2021/01/14 12:17:00;;;;;;;16.65;10.82;;;;;;;5.06;55.11;99571.62;1720391;82;21296;-63
2021/01/14 12:19:32;;;;;;;13.83;9.58;;;;;;;5.12;55.06;99573.75;1735354;82;21099;-63
2021/01/14 12:22:07;;;;;;;23.75;14.30;;;;;;;5.04;55.04;99572.06;1730261;82;21139;-65
2021/01/14 12:24:37;;;;;;;19.17;11.57;;;;;;;5.04;54.82;99570.75;1743427;82;21253;-65
2021/01/14 12:27:12;;;;;;;13.88;8.93;;;;;;;5.05;54.56;99575.52;1746884;81;21131;-65
2021/01/14 12:29:43;;;;;;;13.38;8.88;;;;;;;5.02;53.58;99582.05;1747975;81;21123;-65
2021/01/14 12:32:14;;;;;;;;;;;;;;;4.97;54.37;99575.97;1749481;81;21124;-65
2021/01/14 12:34:43;;;;;;;13.10;8.48;;;;;;;4.90;54.08;99578.58;1735952;82;20175;-65
2021/01/14 12:37:17;;;;;;;15.58;9.58;;;;;;;4.87;54.11;99579.89;1742605;82;21139;-65
2021/01/14 12:39:50;;;;;;;15.30;9.43;;;;;;;4.96;54.11;99582.94;1747283;80;21123;-63
2021/01/14 12:42:20;;;;;;;15.85;10.05;;;;;;;4.93;54.30;99579.03;1748038;81;21194;-64
2021/01/14 12:44:49;;;;;;;14.50;9.48;;;;;;;5.03;54.06;99583.36;1747820;81;21269;-63
2021/01/14 12:47:17;;;;;;;22.65;14.65;;;;;;;5.08;54.08;99579.42;1720518;82;21265;-63
2021/01/14 12:49:47;;;;;;;22.77;14.80;;;;;;;5.06;54.33;99575.53;1742054;82;21154;-63
2021/01/14 12:52:19;;;;;;;21.33;13.60;;;;;;;5.12;54.00;99583.77;1740171;82;21123;-64
2021/01/14 12:54:49;;;;;;;16.67;10.95;;;;;;;5.13;54.02;99581.59;1743630;82;21112;-64
2021/01/14 12:57:24;;;;;;;18.20;11.18;;;;;;;5.12;53.86;99572.45;1691659;82;21131;-64
2021/01/14 12:59:54;;;;;;;17.95;10.38;;;;;;;5.15;53.77;99575.93;1720700;82;21100;-64
2021/01/14 13:02:26;;;;;;;15.65;9.43;;;;;;;5.19;53.44;99567.22;1748036;82;21537;-64
2021/01/14 13:04:57;;;;;;;14.03;9.20;;;;;;;5.12;53.14;99570.72;1743978;82;21181;-63
2021/01/14 13:07:30;;;;;;;13.22;9.18;;;;;;;4.95;53.32;99574.68;1732270;81;21164;-64